createdAt,value
2023-03-08T00:05:05.079Z,3.76
2023-03-08T00:10:10.402Z,3.65
2023-03-08T00:15:14.876Z,3.61
2023-03-08T00:20:20.181Z,3.56
2023-03-08T00:25:24.127Z,3.45
2023-03-08T00:30:29.429Z,3.36
2023-03-08T00:35:34.875Z,3.29
2023-03-08T00:40:38.769Z,3.30
2023-03-08T00:45:42.588Z,3.33
2023-03-08T00:50:47.813Z,3.35
2023-03-08T00:55:53.113Z,3.31
2023-03-08T01:00:57.397Z,3.33
2023-03-08T01:06:07.898Z,3.35
2023-03-08T01:11:17.288Z,3.41
2023-03-08T01:16:24.200Z,3.43
2023-03-08T01:21:30.712Z,3.37
2023-03-08T01:26:34.609Z,3.36
2023-03-08T01:31:38.438Z,3.26
2023-03-08T01:36:44.043Z,3.22
2023-03-08T01:41:47.944Z,3.24
2023-03-08T01:46:52.353Z,3.18
2023-03-08T01:52:03.033Z,3.17
2023-03-08T01:57:11.768Z,3.14
2023-03-08T02:02:17.211Z,3.04
2023-03-08T02:07:22.509Z,3.03
2023-03-08T02:12:27.868Z,2.99
2023-03-08T02:17:33.890Z,2.92
2023-03-08T02:22:41.450Z,2.89
2023-03-08T02:27:45.846Z,2.98
2023-03-08T02:32:50.062Z,2.97
2023-03-08T02:37:55.538Z,2.86
2023-03-08T02:42:59.422Z,2.78
2023-03-08T02:48:03.995Z,2.77
2023-03-08T02:53:09.846Z,2.71
2023-03-08T02:58:13.992Z,2.56
2023-03-08T03:03:18.612Z,2.60
2023-03-08T03:08:23.878Z,2.51
2023-03-08T03:13:32.079Z,2.52
2023-03-08T03:18:36.879Z,2.45
2023-03-08T03:23:42.820Z,2.44
2023-03-08T03:28:52.252Z,2.43
2023-03-08T03:33:56.316Z,2.41
2023-03-08T03:39:04.977Z,2.44
2023-03-08T03:44:11.538Z,2.47
2023-03-08T03:49:16.555Z,2.53
2023-03-08T03:54:24.114Z,2.48
2023-03-08T03:59:28.425Z,2.29
2023-03-08T04:04:33.024Z,1.88
2023-03-08T04:09:39.129Z,1.65
2023-03-08T04:14:47.580Z,1.37
2023-03-08T04:19:53.244Z,1.26
2023-03-08T04:25:00.402Z,1.12
2023-03-08T04:30:14.502Z,0.96
2023-03-08T04:35:19.340Z,0.85
2023-03-08T04:40:29.861Z,0.83
2023-03-08T04:45:36.384Z,0.73
2023-03-08T04:50:45.569Z,0.69
2023-03-08T04:55:51.753Z,0.63
2023-03-08T05:00:55.886Z,0.54
2023-03-08T05:06:00.850Z,0.42
2023-03-08T05:11:06.924Z,0.42
2023-03-08T05:16:13.684Z,0.35
2023-03-08T05:21:19.724Z,0.43
2023-03-08T05:26:30.066Z,0.41
2023-03-08T05:31:36.743Z,0.37
2023-03-08T05:36:43.738Z,0.41
2023-03-08T05:41:50.130Z,0.32
2023-03-08T05:47:00.405Z,0.44
2023-03-08T05:52:05.436Z,0.50
2023-03-08T05:57:11.148Z,0.51
2023-03-08T06:02:15.590Z,0.58
2023-03-08T06:07:23.997Z,0.48
2023-03-08T06:12:44.803Z,0.70
2023-03-08T06:17:53.551Z,0.78
2023-03-08T06:23:00.381Z,0.88
2023-03-08T06:28:06.528Z,0.94
2023-03-08T06:33:15.173Z,0.89
2023-03-08T06:38:21.961Z,0.95
2023-03-08T06:43:27.805Z,0.86
2023-03-08T06:48:31.909Z,1.03
2023-03-08T06:53:38.214Z,1.11
2023-03-08T06:58:45.036Z,1.27
2023-03-08T07:03:50.199Z,1.37
2023-03-08T07:08:54.267Z,1.40
2023-03-08T07:14:00.308Z,1.40
2023-03-08T07:19:04.566Z,1.56
2023-03-08T07:24:08.815Z,1.73
2023-03-08T07:29:14.243Z,1.71
2023-03-08T07:34:18.152Z,1.75
2023-03-08T07:39:23.216Z,1.77
2023-03-08T07:44:28.716Z,1.80
2023-03-08T07:49:32.586Z,1.89
2023-03-08T07:54:36.466Z,2.17
2023-03-08T07:59:42.005Z,2.40
2023-03-08T08:04:45.938Z,2.62
2023-03-08T08:09:49.950Z,2.50
2023-03-08T08:14:55.202Z,2.56
2023-03-08T08:19:59.584Z,2.41
2023-03-08T08:25:05.742Z,2.64
2023-03-08T08:30:14.962Z,2.72
2023-03-08T08:35:19.057Z,2.61
2023-03-08T08:40:23.085Z,2.98
2023-03-08T08:45:28.827Z,3.16
2023-03-08T08:50:33.222Z,3.16
2023-03-08T08:55:39.377Z,3.25
2023-03-08T09:00:47.471Z,3.32
2023-03-08T09:05:51.313Z,3.33
2023-03-08T09:10:55.151Z,3.21
2023-03-08T09:16:00.608Z,3.24
2023-03-08T09:21:04.892Z,3.62
2023-03-08T09:26:09.345Z,3.62
2023-03-08T09:31:17.879Z,3.80
2023-03-08T09:36:22.449Z,3.70
2023-03-08T09:41:45.438Z,3.75
2023-03-08T09:46:54.457Z,3.67
2023-03-08T09:52:04.366Z,3.46
2023-03-08T09:57:14.141Z,3.65
2023-03-08T10:02:27.221Z,3.77
2023-03-08T10:07:37.460Z,3.88
2023-03-08T10:12:52.514Z,3.87
2023-03-08T10:18:02.822Z,4.24
2023-03-08T10:23:13.996Z,4.34
2023-03-08T10:28:20.350Z,4.86
2023-03-08T10:33:27.834Z,5.25
2023-03-08T10:38:34.183Z,5.48
2023-03-08T10:43:42.409Z,5.52
2023-03-08T10:48:48.238Z,5.49
2023-03-08T10:53:56.214Z,5.41
2023-03-08T10:59:00.420Z,5.31
2023-03-08T11:04:07.400Z,5.40
2023-03-08T11:09:22.828Z,5.08
2023-03-08T11:14:27.687Z,4.73
2023-03-08T11:19:54.198Z,4.53
2023-03-08T11:25:19.232Z,4.41
2023-03-08T11:30:33.846Z,4.45
2023-03-08T11:35:46.412Z,4.88
2023-03-08T11:40:56.380Z,4.83
2023-03-08T11:46:07.859Z,5.10
2023-03-08T11:51:19.807Z,5.17
2023-03-08T11:56:40.857Z,5.24
2023-03-08T12:01:48.995Z,5.25
2023-03-08T12:06:56.481Z,5.25
2023-03-08T12:12:04.653Z,5.38
2023-03-08T12:17:14.602Z,5.33
2023-03-08T12:22:33.566Z,5.30
2023-03-08T12:27:43.830Z,5.43
2023-03-08T12:32:49.398Z,5.58
2023-03-08T12:37:59.138Z,5.60
2023-03-08T12:43:12.410Z,5.66
2023-03-08T12:48:26.109Z,6.06
2023-03-08T12:53:44.451Z,6.10
2023-03-08T12:58:53.207Z,6.40
2023-03-08T13:03:57.670Z,6.38
2023-03-08T13:09:14.375Z,6.47
2023-03-08T13:14:27.376Z,6.67
2023-03-08T13:19:31.997Z,6.47
2023-03-08T13:24:44.050Z,6.46
2023-03-08T13:29:48.284Z,6.25
2023-03-08T13:35:00.277Z,6.17
2023-03-08T13:40:16.464Z,6.26
2023-03-08T13:45:20.576Z,6.06
2023-03-08T13:50:28.935Z,5.84
2023-03-08T13:55:36.601Z,5.88
2023-03-08T14:00:41.108Z,5.74
2023-03-08T14:05:45.832Z,5.63
2023-03-08T14:10:53.051Z,5.61
2023-03-08T14:15:58.769Z,5.58
2023-03-08T14:21:05.791Z,5.63
2023-03-08T14:26:34.220Z,5.64
2023-03-08T14:31:39.335Z,5.65
2023-03-08T14:36:49.520Z,5.72
2023-03-08T14:41:55.742Z,5.74
2023-03-08T14:47:09.319Z,5.50
2023-03-08T14:52:21.314Z,5.29
2023-03-08T14:57:28.317Z,5.24
2023-03-08T15:02:32.394Z,5.25
2023-03-08T15:07:37.907Z,5.28
2023-03-08T15:12:43.640Z,5.42
2023-03-08T15:17:48.260Z,5.30
2023-03-08T15:22:54.360Z,5.17
2023-03-08T15:27:59.759Z,5.30
2023-03-08T15:33:03.865Z,4.92
2023-03-08T15:38:08.189Z,4.94
2023-03-08T15:43:13.634Z,4.78
2023-03-08T15:48:19.197Z,4.77
2023-03-08T15:53:34.956Z,4.90
2023-03-08T15:58:41.846Z,4.85
2023-03-08T16:03:46.089Z,4.83
2023-03-08T16:08:50.381Z,4.74
2023-03-08T16:13:55.751Z,4.81
2023-03-08T16:18:59.649Z,4.82
2023-03-08T16:24:03.882Z,4.75
2023-03-08T16:29:09.223Z,4.71
2023-03-08T16:34:13.299Z,4.63
2023-03-08T16:39:17.439Z,4.53
2023-03-08T16:44:25.399Z,4.35
2023-03-08T16:49:29.273Z,4.36
2023-03-08T16:54:33.307Z,4.29
2023-03-08T16:59:40.579Z,4.12
2023-03-08T17:04:45.047Z,4.05
2023-03-08T17:09:50.639Z,3.92
2023-03-08T17:14:56.147Z,3.84
2023-03-08T17:20:00.957Z,3.85
2023-03-08T17:25:05.963Z,3.82
2023-03-08T17:30:15.816Z,3.77
2023-03-08T17:35:19.868Z,3.54
2023-03-08T17:40:24.394Z,3.55
2023-03-08T17:45:30.357Z,3.44
2023-03-08T17:50:35.050Z,3.42
2023-03-08T17:55:41.489Z,3.29
2023-03-08T18:00:47.036Z,3.27
2023-03-08T18:05:52.816Z,3.23
2023-03-08T18:10:56.877Z,3.16
2023-03-08T18:16:03.548Z,3.08
2023-03-08T18:21:13.777Z,3.02
2023-03-08T18:26:19.022Z,2.93
2023-03-08T18:31:26.225Z,2.94
2023-03-08T18:36:31.020Z,2.93
2023-03-08T18:41:35.548Z,2.95
2023-03-08T18:46:41.109Z,2.87
2023-03-08T18:51:45.496Z,2.87
2023-03-08T18:56:53.816Z,2.96
2023-03-08T19:01:59.118Z,2.93
2023-03-08T19:07:03.561Z,2.85
2023-03-08T19:12:07.770Z,2.91
2023-03-08T19:17:15.019Z,2.87
2023-03-08T19:22:20.522Z,2.85
2023-03-08T19:27:24.598Z,2.84
2023-03-08T19:32:30.135Z,2.83
2023-03-08T19:37:34.444Z,2.81
2023-03-08T19:42:38.908Z,2.73
2023-03-08T19:47:44.130Z,2.70
2023-03-08T19:52:48.028Z,2.74
2023-03-08T19:57:52.259Z,2.74
2023-03-08T20:02:59.519Z,2.74
2023-03-08T20:08:03.839Z,2.79
2023-03-08T20:13:08.012Z,2.87
2023-03-08T20:18:13.645Z,2.87
2023-03-08T20:23:18.110Z,2.93
2023-03-08T20:28:22.008Z,2.98
2023-03-08T20:33:27.349Z,3.02
2023-03-08T20:38:31.315Z,3.12
2023-03-08T20:43:35.277Z,3.21
2023-03-08T20:48:42.658Z,3.24
2023-03-08T20:53:49.378Z,3.33
2023-03-08T20:58:55.240Z,3.35
2023-03-08T21:04:00.986Z,3.44
2023-03-08T21:09:06.217Z,3.46
2023-03-08T21:14:10.941Z,3.48
2023-03-08T21:19:16.870Z,3.46
2023-03-08T21:24:23.010Z,3.57
2023-03-08T21:29:28.258Z,3.54
2023-03-08T21:34:33.861Z,3.60
2023-03-08T21:39:37.993Z,3.61
2023-03-08T21:44:42.581Z,3.65
2023-03-08T21:49:48.247Z,3.65
2023-03-08T21:54:52.580Z,3.75
2023-03-08T21:59:56.479Z,3.75
2023-03-08T22:05:04.228Z,3.80
2023-03-08T22:10:10.068Z,3.84
2023-03-08T22:15:15.960Z,3.89
2023-03-08T22:20:23.035Z,3.93
2023-03-08T22:25:26.874Z,4.01
2023-03-08T22:30:31.117Z,4.09
2023-03-08T22:35:36.949Z,4.18
2023-03-08T22:40:41.884Z,4.28
2023-03-08T22:45:46.305Z,4.37
2023-03-08T22:51:04.712Z,4.46
2023-03-08T22:56:25.892Z,4.58
2023-03-08T23:01:32.668Z,4.69
2023-03-08T23:06:38.097Z,4.77
2023-03-08T23:11:43.020Z,4.82
2023-03-08T23:16:47.529Z,4.88
2023-03-08T23:21:53.204Z,4.93
2023-03-08T23:27:01.795Z,4.96
2023-03-08T23:32:06.703Z,4.98
2023-03-08T23:37:12.072Z,4.99
2023-03-08T23:42:16.496Z,5.03
2023-03-08T23:47:21.369Z,5.03
2023-03-08T23:52:27.215Z,4.98
2023-03-08T23:57:31.299Z,5.06
